createdAt,value
2023-03-23T15:58:49.800Z,20.52
2023-03-23T16:01:27.243Z,20.46
2023-03-23T16:04:06.572Z,20.51
2023-03-23T16:06:42.826Z,20.43
2023-03-23T16:09:19.407Z,20.40
2023-03-23T16:11:53.704Z,20.33
2023-03-23T16:14:28.280Z,20.20
2023-03-23T16:17:02.585Z,20.35
2023-03-23T16:19:37.351Z,20.35
2023-03-23T16:22:13.048Z,20.27
2023-03-23T16:24:47.603Z,20.15
2023-03-23T16:27:23.334Z,20.11
2023-03-23T16:30:04.163Z,19.97
2023-03-23T16:35:12.469Z,19.80
2023-03-23T16:37:49.502Z,19.77
2023-03-23T16:40:24.767Z,19.47
2023-03-23T16:42:59.077Z,19.25
2023-03-23T16:45:33.940Z,19.23
2023-03-23T16:48:09.208Z,19.02
2023-03-23T16:50:44.863Z,18.93
2023-03-23T16:53:21.085Z,18.82
2023-03-23T16:55:57.919Z,18.73
2023-03-23T16:58:32.641Z,18.57
2023-03-23T17:01:08.483Z,18.39
2023-03-23T17:03:44.096Z,18.49
2023-03-23T17:06:18.737Z,18.38
2023-03-23T17:08:54.733Z,18.38
2023-03-23T17:11:29.485Z,18.26
2023-03-23T17:14:06.131Z,18.27
2023-03-23T17:16:49.142Z,18.13
2023-03-23T17:19:23.423Z,18.09
2023-03-23T17:21:58.086Z,17.91
2023-03-23T17:24:33.749Z,17.84
2023-03-23T17:27:08.511Z,17.90
2023-03-23T17:29:43.039Z,17.79
2023-03-23T17:32:17.830Z,17.63
2023-03-23T17:34:52.740Z,17.64
2023-03-23T17:37:27.429Z,17.57
2023-03-23T17:40:03.744Z,17.46
2023-03-23T17:42:39.160Z,17.42
2023-03-23T17:45:13.480Z,17.43
2023-03-23T17:47:48.193Z,17.34
2023-03-23T17:50:22.539Z,17.32
2023-03-23T17:52:58.087Z,17.11
2023-03-23T17:55:34.431Z,17.18
2023-03-23T17:58:09.323Z,17.07
2023-03-23T18:00:43.774Z,17.05
2023-03-23T18:03:18.629Z,16.96
2023-03-23T18:05:54.367Z,17.03
2023-03-23T18:08:33.070Z,16.81
2023-03-23T18:11:09.987Z,16.69
2023-03-23T18:13:45.113Z,16.64
2023-03-23T18:16:19.405Z,16.50
2023-03-23T18:18:54.232Z,16.50
2023-03-23T18:21:29.034Z,16.34
2023-03-23T18:24:04.143Z,16.38
2023-03-23T18:26:41.932Z,16.33
2023-03-23T18:29:17.008Z,16.12
2023-03-23T18:31:51.685Z,16.09
2023-03-23T18:34:26.616Z,16.10
2023-03-23T18:37:04.190Z,15.99
2023-03-23T18:39:39.504Z,16.06
2023-03-23T18:42:15.504Z,15.82
2023-03-23T18:44:50.673Z,15.73
2023-03-23T18:47:28.331Z,15.81
2023-03-23T18:50:03.184Z,15.81
2023-03-23T18:52:37.793Z,15.58
2023-03-23T18:55:12.683Z,15.59
2023-03-23T18:57:49.542Z,15.49
2023-03-23T19:00:24.898Z,16.14
2023-03-23T19:02:59.439Z,16.93
2023-03-23T19:05:35.142Z,16.82
2023-03-23T19:08:10.375Z,16.08
2023-03-23T19:10:45.307Z,15.92
2023-03-23T19:13:21.232Z,15.60
2023-03-23T19:15:56.241Z,15.58
2023-03-23T19:18:30.597Z,15.53
2023-03-23T19:21:14.586Z,15.51
2023-03-23T19:23:51.631Z,15.31
2023-03-23T19:26:36.266Z,15.29
2023-03-23T19:31:56.207Z,17.15
2023-03-23T19:34:33.382Z,17.32
2023-03-23T19:37:11.243Z,16.50
2023-03-23T19:40:06.629Z,16.03
2023-03-23T19:42:49.968Z,15.49
2023-03-23T19:45:26.382Z,15.16
2023-03-23T19:48:01.825Z,15.20
2023-03-23T19:50:38.769Z,15.03
2023-03-23T19:53:13.982Z,14.72
2023-03-23T19:55:48.908Z,14.83
2023-03-23T19:58:24.982Z,15.59
2023-03-23T20:01:01.850Z,15.96
2023-03-23T20:03:37.245Z,15.38
2023-03-23T20:06:15.075Z,15.27
2023-03-23T20:08:50.158Z,15.23
2023-03-23T20:11:24.741Z,15.00
2023-03-23T20:13:59.756Z,14.88
2023-03-23T20:16:36.101Z,14.82
2023-03-23T20:19:11.744Z,14.70
2023-03-23T20:21:46.483Z,14.67
2023-03-23T20:24:21.596Z,14.69
2023-03-23T20:26:56.126Z,14.62
2023-03-23T20:29:31.673Z,14.55
2023-03-23T20:32:08.647Z,14.41
2023-03-23T20:34:44.222Z,14.32
2023-03-23T20:37:20.908Z,14.25
2023-03-23T20:39:55.949Z,14.20
2023-03-23T20:42:33.560Z,14.13
2023-03-23T20:45:08.807Z,14.62
2023-03-23T20:47:44.939Z,14.37
2023-03-23T20:50:20.389Z,14.13
2023-03-23T20:52:54.914Z,14.10
2023-03-23T20:55:29.871Z,13.92
2023-03-23T20:58:04.401Z,13.68
2023-03-23T21:00:41.483Z,13.66
2023-03-23T21:03:17.933Z,13.62
2023-03-23T21:05:52.882Z,13.57
2023-03-23T21:08:27.575Z,13.57
2023-03-23T21:11:02.131Z,13.54
2023-03-23T21:13:36.851Z,13.55
2023-03-23T21:16:11.931Z,13.54
2023-03-23T21:18:48.532Z,13.50
2023-03-23T21:21:23.868Z,13.49
2023-03-23T21:23:58.347Z,13.41
2023-03-23T21:26:33.045Z,13.28
2023-03-23T21:29:10.339Z,13.42
2023-03-23T21:31:46.133Z,13.47
2023-03-23T21:34:26.500Z,13.48
2023-03-23T21:37:03.752Z,13.32
2023-03-23T21:39:39.722Z,13.39
2023-03-23T21:42:14.901Z,13.25
2023-03-23T21:44:49.567Z,13.36
2023-03-23T21:47:26.670Z,13.36
2023-03-23T21:50:04.327Z,13.33
2023-03-23T21:52:39.846Z,13.28
2023-03-23T21:55:14.252Z,13.26
2023-03-23T21:57:51.755Z,13.20
2023-03-23T22:00:26.879Z,14.32
2023-03-23T22:03:02.780Z,15.23
2023-03-23T22:05:42.061Z,15.14
2023-03-23T22:08:16.756Z,14.42
2023-03-23T22:11:01.271Z,13.87
2023-03-23T22:13:39.726Z,13.44
2023-03-23T22:16:17.870Z,13.10
2023-03-23T22:18:53.912Z,13.05
2023-03-23T22:21:30.493Z,13.18
2023-03-23T22:24:05.465Z,12.90
2023-03-23T22:26:40.056Z,12.85
2023-03-23T22:29:17.184Z,12.82
2023-03-23T22:31:51.680Z,12.77
2023-03-23T22:34:26.510Z,12.76
2023-03-23T22:37:02.206Z,12.69
2023-03-23T22:39:37.008Z,12.74
2023-03-23T22:42:12.451Z,12.78
2023-03-23T22:44:48.055Z,12.73
2023-03-23T22:47:22.378Z,12.50
2023-03-23T22:49:56.936Z,12.47
2023-03-23T22:52:33.445Z,12.45
2023-03-23T22:55:10.002Z,12.36
2023-03-23T22:57:44.303Z,12.43
2023-03-23T23:02:59.160Z,12.99
2023-03-23T23:05:34.325Z,12.99
2023-03-23T23:08:12.419Z,12.33
2023-03-23T23:10:49.300Z,12.29
2023-03-23T23:13:24.225Z,12.36
2023-03-23T23:16:00.983Z,12.38
2023-03-23T23:18:37.405Z,12.30
2023-03-23T23:21:14.271Z,12.12
2023-03-23T23:23:49.765Z,12.17
2023-03-23T23:26:24.422Z,12.12
2023-03-23T23:28:58.654Z,12.08
2023-03-23T23:31:34.720Z,11.93
2023-03-23T23:34:13.809Z,11.75
2023-03-23T23:36:48.353Z,11.50
2023-03-23T23:39:22.731Z,11.48
2023-03-23T23:41:58.038Z,11.35
2023-03-23T23:44:32.400Z,11.03
2023-03-23T23:47:07.333Z,11.01
2023-03-23T23:49:42.967Z,10.88
2023-03-23T23:52:17.990Z,10.67
2023-03-23T23:54:52.808Z,10.79
2023-03-23T23:57:27.509Z,10.92
